Time;durP1;ratioP1;P1;durP2;ratioP2;P2;SDS_P1;SDS_P2;PMS_P1;PMS_P2;Temp;Humidity;BMP_temperature;BMP_pressure;BME280_temperature;BME280_humidity;BME280_pressure;Samples;Min_cycle;Max_cycle;Signal;HPM_P1;HPM_P2
2024/01/27 00:00:57;;;;;;;13.70;6.97;;;4.90;99.90;;;;;;5116136;28;20614;-74
2024/01/27 00:03:23;;;;;;;15.33;6.33;;;4.90;99.90;;;;;;5115975;28;20576;-74
2024/01/27 00:05:48;;;;;;;16.80;7.20;;;4.80;99.90;;;;;;5115898;28;20605;-73
2024/01/27 00:08:14;;;;;;;17.40;7.20;;;4.80;99.90;;;;;;5116203;28;20614;-74
2024/01/27 00:10:40;;;;;;;15.87;6.97;;;4.80;99.90;;;;;;5116158;28;20186;-75
2024/01/27 00:13:05;;;;;;;13.97;6.83;;;4.80;99.90;;;;;;5115715;27;20250;-74
2024/01/27 00:15:31;;;;;;;17.37;7.93;;;4.80;99.90;;;;;;5115800;28;20649;-74
2024/01/27 00:17:56;;;;;;;15.67;6.90;;;4.70;99.90;;;;;;5114583;28;20629;-74
2024/01/27 00:20:22;;;;;;;11.40;6.60;;;4.70;99.90;;;;;;5113998;28;20178;-74
2024/01/27 00:22:47;;;;;;;20.27;7.70;;;4.70;99.90;;;;;;5115702;28;20622;-75
2024/01/27 00:25:13;;;;;;;12.23;6.77;;;4.70;99.90;;;;;;5115647;28;20677;-75
2024/01/27 00:27:38;;;;;;;14.03;6.43;;;4.70;99.90;;;;;;5115442;28;20250;-74
2024/01/27 00:30:05;;;;;;;17.63;7.80;;;4.60;99.90;;;;;;5114333;28;20186;-75
2024/01/27 00:32:31;;;;;;;14.30;6.83;;;4.60;99.90;;;;;;5113943;28;20211;-75
2024/01/27 00:34:56;;;;;;;13.37;7.20;;;4.70;99.90;;;;;;5115454;28;20171;-75
2024/01/27 00:37:22;;;;;;;14.80;6.90;;;4.60;99.90;;;;;;5115359;28;20171;-75
2024/01/27 00:39:47;;;;;;;15.33;6.80;;;4.60;99.90;;;;;;5115380;28;20627;-75
2024/01/27 00:42:13;;;;;;;16.27;6.63;;;4.60;99.90;;;;;;5115218;28;20243;-75
2024/01/27 00:44:39;;;;;;;15.17;6.53;;;4.60;99.90;;;;;;5115269;28;20219;-75
2024/01/27 00:47:04;;;;;;;16.40;7.20;;;4.70;99.90;;;;;;5115239;28;20179;-74
2024/01/27 00:49:30;;;;;;;17.30;7.03;;;4.60;99.90;;;;;;5115177;28;20220;-75
2024/01/27 00:51:55;;;;;;;15.97;6.80;;;4.60;99.90;;;;;;5113976;28;20216;-74
2024/01/27 00:54:21;;;;;;;21.67;7.17;;;4.60;99.90;;;;;;5115235;28;20187;-75
2024/01/27 00:56:48;;;;;;;23.07;7.60;;;4.50;99.90;;;;;;5115168;28;20178;-74
2024/01/27 00:59:13;;;;;;;19.57;7.27;;;4.50;99.90;;;;;;5115088;28;20189;-75
2024/01/27 01:01:39;;;;;;;18.43;7.30;;;4.50;99.90;;;;;;5114969;28;20171;-74
2024/01/27 01:04:04;;;;;;;18.73;7.83;;;4.50;99.90;;;;;;5114577;28;20587;-75
2024/01/27 01:06:30;;;;;;;16.63;7.97;;;4.60;99.90;;;;;;5113565;28;20228;-75
2024/01/27 01:08:56;;;;;;;15.00;7.60;;;4.50;99.90;;;;;;5115046;28;20167;-75
2024/01/27 01:11:21;;;;;;;17.47;7.33;;;4.60;99.90;;;;;;5114775;28;20178;-75
2024/01/27 01:13:47;;;;;;;17.47;7.90;;;4.60;99.90;;;;;;5115032;28;20175;-75
2024/01/27 01:16:13;;;;;;;18.23;7.27;;;4.60;99.90;;;;;;5114771;28;20163;-75
2024/01/27 01:18:38;;;;;;;17.50;7.87;;;4.60;99.90;;;;;;5113340;28;20178;-75
2024/01/27 01:21:04;;;;;;;17.27;7.30;;;4.60;99.90;;;;;;5114707;28;20529;-74
2024/01/27 01:23:30;;;;;;;18.20;7.40;;;4.50;99.90;;;;;;5114636;28;20258;-74
2024/01/27 01:25:56;;;;;;;16.93;7.57;;;4.50;99.90;;;;;;5114526;28;20207;-75
2024/01/27 01:28:22;;;;;;;16.03;7.60;;;4.60;99.90;;;;;;5113556;28;20166;-75
2024/01/27 01:30:49;;;;;;;16.57;7.70;;;4.60;99.90;;;;;;5113255;28;20227;-74
2024/01/27 01:33:15;;;;;;;14.50;7.63;;;4.60;99.90;;;;;;5113431;28;20223;-74
2024/01/27 01:35:40;;;;;;;22.70;7.23;;;4.60;99.90;;;;;;5114351;28;20580;-74
2024/01/27 01:38:06;;;;;;;18.57;7.63;;;4.60;99.90;;;;;;5114406;28;20217;-75
2024/01/27 01:40:32;;;;;;;21.07;7.50;;;4.50;99.90;;;;;;5114336;28;20182;-75
2024/01/27 01:42:59;;;;;;;20.10;9.67;;;4.50;99.90;;;;;;5114103;28;20195;-75
2024/01/27 01:45:24;;;;;;;17.97;7.73;;;4.50;99.90;;;;;;5114209;28;20214;-74
2024/01/27 01:47:50;;;;;;;18.60;8.23;;;4.50;99.90;;;;;;5113685;28;20687;-74
2024/01/27 01:50:15;;;;;;;22.30;8.37;;;4.50;99.90;;;;;;5114113;28;20218;-76
2024/01/27 01:52:41;;;;;;;16.03;7.63;;;4.50;99.90;;;;;;5113996;28;20248;-75
2024/01/27 01:55:07;;;;;;;14.73;7.70;;;4.50;99.90;;;;;;5114049;28;20220;-75
2024/01/27 01:57:33;;;;;;;17.80;8.00;;;4.50;99.90;;;;;;5113976;28;20528;-75
2024/01/27 01:59:59;;;;;;;19.23;8.10;;;4.50;99.90;;;;;;5114069;28;20654;-75
2024/01/27 02:02:25;;;;;;;21.43;8.40;;;4.50;99.90;;;;;;5113734;28;20175;-75
2024/01/27 02:04:50;;;;;;;21.70;8.53;;;4.40;99.90;;;;;;5113823;28;20722;-75
2024/01/27 02:07:16;;;;;;;17.50;7.77;;;4.40;99.90;;;;;;5113829;28;20652;-74
2024/01/27 02:09:41;;;;;;;18.90;8.03;;;4.40;99.90;;;;;;5114026;28;20175;-74
2024/01/27 02:12:07;;;;;;;16.63;8.27;;;4.40;99.90;;;;;;5113737;28;20167;-75
2024/01/27 02:14:32;;;;;;;19.77;7.73;;;4.40;99.90;;;;;;5112416;28;20224;-75
2024/01/27 02:16:58;;;;;;;17.57;8.07;;;4.40;99.90;;;;;;5113344;28;20182;-75
2024/01/27 02:19:24;;;;;;;15.33;8.17;;;4.30;99.90;;;;;;5113846;28;20625;-74
2024/01/27 02:21:50;;;;;;;27.10;8.70;;;4.30;99.90;;;;;;5113609;28;20167;-75
2024/01/27 02:24:15;;;;;;;19.30;8.07;;;4.30;99.90;;;;;;5113498;28;20211;-75
2024/01/27 02:26:41;;;;;;;20.67;8.00;;;4.30;99.90;;;;;;5113578;28;20167;-74
2024/01/27 02:29:06;;;;;;;18.53;7.83;;;4.30;99.90;;;;;;5113620;28;20302;-75
2024/01/27 02:31:32;;;;;;;17.93;7.80;;;4.30;99.90;;;;;;5112943;28;20215;-75
2024/01/27 02:33:57;;;;;;;17.20;8.07;;;4.30;99.90;;;;;;5113630;28;20167;-75
2024/01/27 02:36:23;;;;;;;19.17;8.60;;;4.30;99.90;;;;;;5113695;28;20172;-75
2024/01/27 02:38:48;;;;;;;24.67;7.93;;;4.30;99.90;;;;;;5112132;28;20178;-75
2024/01/27 02:41:14;;;;;;;23.00;8.40;;;4.30;99.90;;;;;;5113645;28;20210;-75
2024/01/27 02:43:40;;;;;;;23.93;8.50;;;4.40;99.90;;;;;;5114976;28;20560;-75
2024/01/27 02:46:10;;;;;;;19.23;8.67;;;4.40;99.90;;;;;;5117249;28;20265;-75
2024/01/27 02:48:35;;;;;;;20.97;8.23;;;4.50;99.90;;;;;;5117623;28;20182;-75
2024/01/27 02:51:04;;;;;;;23.47;8.07;;;4.40;99.90;;;;;;5117651;28;20549;-74
2024/01/27 02:53:30;;;;;;;21.70;8.43;;;4.40;99.90;;;;;;5115961;28;20191;-75
2024/01/27 02:55:56;;;;;;;24.57;8.60;;;4.40;99.90;;;;;;5117467;27;20635;-76
2024/01/27 02:58:22;;;;;;;17.43;7.73;;;4.40;99.90;;;;;;5117494;28;20262;-75
2024/01/27 03:00:47;;;;;;;17.60;7.83;;;4.40;99.90;;;;;;5117201;28;20180;-76
2024/01/27 03:03:13;;;;;;;15.03;8.20;;;4.40;99.90;;;;;;5117318;28;20167;-75
2024/01/27 03:05:38;;;;;;;18.57;7.83;;;4.40;99.90;;;;;;5117218;28;20248;-74
2024/01/27 03:08:04;;;;;;;19.33;8.10;;;4.40;99.90;;;;;;5115796;28;20179;-74
2024/01/27 03:10:31;;;;;;;14.30;7.40;;;4.40;99.90;;;;;;5117125;28;20607;-74
2024/01/27 03:12:56;;;;;;;18.60;8.03;;;4.40;99.90;;;;;;5117533;28;20179;-75
2024/01/27 03:15:22;;;;;;;22.30;7.70;;;4.30;99.90;;;;;;5116997;28;20167;-74
2024/01/27 03:17:48;;;;;;;20.53;8.47;;;4.30;99.90;;;;;;5117089;28;20176;-76
2024/01/27 03:20:13;;;;;;;16.97;7.87;;;4.30;99.90;;;;;;5117004;28;20634;-75
2024/01/27 03:22:40;;;;;;;20.67;8.13;;;4.30;99.90;;;;;;5116771;28;20163;-74
2024/01/27 03:25:06;;;;;;;16.83;7.90;;;4.20;99.90;;;;;;5116863;28;20199;-75
2024/01/27 03:27:32;;;;;;;27.37;8.17;;;4.30;99.90;;;;;;5117103;28;20232;-74
2024/01/27 03:30:01;;;;;;;18.53;8.27;;;4.30;99.90;;;;;;5116742;28;20175;-74
2024/01/27 03:32:27;;;;;;;23.80;8.17;;;4.30;99.90;;;;;;5116550;27;20222;-74
2024/01/27 03:34:53;;;;;;;17.33;7.70;;;4.40;99.90;;;;;;5116847;28;20171;-74
2024/01/27 03:37:18;;;;;;;17.27;7.50;;;4.40;99.90;;;;;;5116491;28;20232;-74
2024/01/27 03:39:44;;;;;;;14.87;7.70;;;4.30;99.90;;;;;;5116670;28;20178;-74
2024/01/27 03:42:09;;;;;;;19.47;8.60;;;4.30;99.90;;;;;;5116450;28;20199;-75
2024/01/27 03:44:35;;;;;;;20.70;8.70;;;4.20;99.90;;;;;;5116177;28;20206;-73
2024/01/27 03:47:01;;;;;;;21.87;7.50;;;4.20;99.90;;;;;;5116534;28;20163;-74
2024/01/27 03:49:26;;;;;;;18.03;7.57;;;4.20;99.90;;;;;;5116496;28;20651;-74
2024/01/27 03:51:52;;;;;;;27.07;8.33;;;4.20;99.90;;;;;;5116050;28;20171;-74
2024/01/27 03:54:17;;;;;;;17.77;7.47;;;4.20;99.90;;;;;;5116068;28;20193;-74
2024/01/27 03:56:43;;;;;;;21.87;8.27;;;4.20;99.90;;;;;;5115368;28;20618;-75
2024/01/27 03:59:10;;;;;;;20.93;7.60;;;4.20;99.90;;;;;;5115874;28;20578;-74
2024/01/27 04:01:36;;;;;;;16.40;7.40;;;4.20;99.90;;;;;;5116002;28;20159;-74
2024/01/27 04:04:02;;;;;;;15.43;7.80;;;4.20;99.90;;;;;;5116058;28;20528;-75
2024/01/27 04:06:27;;;;;;;22.10;7.87;;;4.10;99.90;;;;;;5115969;28;20257;-74
2024/01/27 04:08:53;;;;;;;23.97;8.10;;;4.10;99.90;;;;;;5115876;28;20167;-75
2024/01/27 04:11:22;;;;;;;18.30;7.80;;;4.10;99.90;;;;;;5114392;28;20178;-74
2024/01/27 04:13:52;;;;;;;13.93;7.50;;;4.10;99.90;;;;;;5116002;28;20187;-75
2024/01/27 04:16:18;;;;;;;22.63;8.17;;;4.10;99.90;;;;;;5116048;28;20236;-74
2024/01/27 04:18:43;;;;;;;24.03;8.50;;;4.10;99.90;;;;;;5115991;28;20638;-75
2024/01/27 04:21:09;;;;;;;17.93;8.63;;;4.10;99.90;;;;;;5114460;28;20167;-75
2024/01/27 04:23:34;;;;;;;16.47;8.27;;;4.10;99.90;;;;;;5114329;28;20541;-75
2024/01/27 04:26:00;;;;;;;19.13;8.33;;;4.00;99.90;;;;;;5115405;28;20246;-75
2024/01/27 04:28:25;;;;;;;20.30;8.37;;;4.00;99.90;;;;;;5115601;28;20244;-74
2024/01/27 04:30:51;;;;;;;17.17;7.67;;;4.00;99.90;;;;;;5115276;28;20223;-73
2024/01/27 04:33:17;;;;;;;20.37;8.20;;;4.00;99.90;;;;;;5115501;28;20163;-75
2024/01/27 04:35:43;;;;;;;20.17;8.20;;;4.00;99.90;;;;;;5115134;28;20695;-74
2024/01/27 04:38:09;;;;;;;20.80;7.80;;;4.00;99.90;;;;;;5113969;28;20194;-75
2024/01/27 04:40:35;;;;;;;17.87;7.70;;;4.00;99.90;;;;;;5113465;28;20171;-74
2024/01/27 04:43:01;;;;;;;19.67;8.60;;;4.00;99.90;;;;;;5115337;28;20171;-74
2024/01/27 04:45:27;;;;;;;14.67;7.57;;;4.00;99.90;;;;;;5115174;28;20207;-74
2024/01/27 04:47:53;;;;;;;20.33;7.97;;;3.90;99.90;;;;;;5114856;28;20197;-74
2024/01/27 04:50:19;;;;;;;21.87;7.77;;;4.00;99.90;;;;;;5115323;28;20171;-75
2024/01/27 04:52:45;;;;;;;15.93;7.67;;;3.90;99.90;;;;;;5115027;28;20226;-74
2024/01/27 04:55:11;;;;;;;24.83;9.00;;;3.90;99.90;;;;;;5115053;28;20176;-74
2024/01/27 04:57:37;;;;;;;20.57;8.27;;;3.90;99.90;;;;;;5115170;28;20170;-74
2024/01/27 05:00:07;;;;;;;17.70;7.30;;;3.90;99.90;;;;;;5113802;28;20167;-75
2024/01/27 05:02:33;;;;;;;17.10;8.17;;;3.90;99.90;;;;;;5113906;28;20536;-75
2024/01/27 05:04:58;;;;;;;22.40;7.73;;;3.80;99.90;;;;;;5114824;28;20215;-75
2024/01/27 05:07:24;;;;;;;16.10;7.30;;;3.80;99.90;;;;;;5113831;28;20618;-75
2024/01/27 05:09:50;;;;;;;20.73;8.33;;;3.80;99.90;;;;;;5114630;28;20183;-74
2024/01/27 05:12:16;;;;;;;19.87;7.47;;;3.90;99.90;;;;;;5114523;28;20182;-75
2024/01/27 05:14:47;;;;;;;22.70;7.70;;;3.80;99.90;;;;;;5114753;28;20180;-75
2024/01/27 05:17:12;;;;;;;18.37;8.30;;;3.90;99.90;;;;;;5114582;28;20274;-75
2024/01/27 05:19:38;;;;;;;18.83;8.20;;;3.90;99.90;;;;;;5114709;28;20606;-75
2024/01/27 05:22:03;;;;;;;22.40;8.83;;;3.90;99.90;;;;;;5114379;28;20579;-75
2024/01/27 05:24:29;;;;;;;24.47;8.60;;;3.90;99.90;;;;;;5114285;28;20222;-75
2024/01/27 05:26:54;;;;;;;20.13;8.03;;;3.90;99.90;;;;;;5114244;28;20182;-75
2024/01/27 05:29:20;;;;;;;19.97;7.80;;;4.00;99.90;;;;;;5114326;28;20209;-75
2024/01/27 05:31:46;;;;;;;22.73;7.30;;;4.00;99.90;;;;;;5114164;27;20709;-75
2024/01/27 05:34:12;;;;;;;16.93;7.40;;;4.00;99.90;;;;;;5112906;28;20167;-76
2024/01/27 05:36:37;;;;;;;21.70;7.77;;;4.00;99.90;;;;;;5112887;28;20650;-75
2024/01/27 05:39:04;;;;;;;19.70;8.30;;;4.10;99.90;;;;;;5114156;28;20589;-76
2024/01/27 05:41:30;;;;;;;12.83;7.30;;;4.10;99.90;;;;;;5114015;28;20224;-76
2024/01/27 05:43:59;;;;;;;19.67;7.30;;;4.10;99.90;;;;;;5113524;28;20250;-74
2024/01/27 05:46:25;;;;;;;22.00;8.27;;;4.10;99.90;;;;;;5113698;28;20175;-76
2024/01/27 05:48:53;;;;;;;27.23;9.80;;;4.10;99.90;;;;;;5113781;28;20172;-75
2024/01/27 05:51:25;;;;;;;17.73;8.30;;;4.10;99.90;;;;;;5113787;28;20282;-76
2024/01/27 05:53:51;;;;;;;15.97;7.93;;;4.10;99.90;;;;;;5113511;28;20223;-76
2024/01/27 05:56:20;;;;;;;17.07;7.70;;;4.10;99.90;;;;;;5112787;28;20555;-76
2024/01/27 05:58:46;;;;;;;19.87;7.33;;;4.10;99.90;;;;;;5113527;28;20225;-76
2024/01/27 06:01:11;;;;;;;17.13;6.57;;;4.20;99.90;;;;;;5113821;28;20622;-76
2024/01/27 06:03:37;;;;;;;16.03;7.60;;;4.20;99.90;;;;;;5113816;28;20177;-76
2024/01/27 06:06:03;;;;;;;17.87;6.93;;;4.10;99.90;;;;;;5113683;28;20206;-76
2024/01/27 06:08:29;;;;;;;17.33;7.53;;;4.10;99.90;;;;;;5113382;28;20175;-76
2024/01/27 06:10:54;;;;;;;21.43;7.53;;;4.00;99.90;;;;;;5113431;28;20171;-76
2024/01/27 06:13:20;;;;;;;20.63;7.10;;;4.00;99.90;;;;;;5113582;28;20684;-76
2024/01/27 06:15:45;;;;;;;18.13;7.50;;;4.00;99.90;;;;;;5113206;28;20207;-76
2024/01/27 06:18:11;;;;;;;20.90;7.30;;;4.00;99.90;;;;;;5113176;28;20171;-76
2024/01/27 06:20:36;;;;;;;15.90;7.40;;;4.00;99.90;;;;;;5111955;28;20228;-76
2024/01/27 06:23:02;;;;;;;23.23;8.10;;;3.90;99.90;;;;;;5112836;28;20254;-77
2024/01/27 06:25:28;;;;;;;24.93;8.13;;;3.90;99.90;;;;;;5113334;28;20563;-76
2024/01/27 06:27:53;;;;;;;21.03;7.37;;;4.00;99.90;;;;;;5112986;28;20171;-75
2024/01/27 06:30:19;;;;;;;18.70;7.60;;;4.00;99.90;;;;;;5113199;28;20217;-76
2024/01/27 06:32:44;;;;;;;18.00;7.70;;;4.00;99.90;;;;;;5092926;28;20659;-76
2024/01/27 06:35:10;;;;;;;18.40;8.00;;;3.90;99.90;;;;;;5092984;28;20172;-75
2024/01/27 06:37:36;;;;;;;15.40;7.40;;;3.90;99.90;;;;;;5091288;28;20209;-76
2024/01/27 06:40:02;;;;;;;20.53;7.77;;;3.70;99.90;;;;;;5093111;28;20216;-77
2024/01/27 06:42:28;;;;;;;15.27;7.53;;;3.80;99.90;;;;;;5091446;28;20217;-76
2024/01/27 06:44:53;;;;;;;22.23;7.90;;;3.80;99.90;;;;;;5092866;28;20609;-76
2024/01/27 06:47:19;;;;;;;16.23;7.87;;;3.80;99.90;;;;;;5092976;28;20179;-76
2024/01/27 06:49:44;;;;;;;15.10;6.97;;;3.80;99.90;;;;;;5092764;28;20175;-76
2024/01/27 06:52:12;;;;;;;24.50;8.30;;;3.80;99.90;;;;;;5090889;28;20187;-75
2024/01/27 06:54:41;;;;;;;21.47;7.97;;;3.70;99.90;;;;;;5093269;28;20155;-76
2024/01/27 06:57:06;;;;;;;17.97;7.17;;;3.70;99.90;;;;;;5092772;28;20599;-76
2024/01/27 06:59:32;;;;;;;28.00;8.00;;;3.70;99.90;;;;;;5092468;28;20172;-76
2024/01/27 07:01:57;;;;;;;15.50;7.37;;;3.80;99.90;;;;;;5092956;28;20584;-76
2024/01/27 07:04:23;;;;;;;17.87;7.63;;;3.80;99.90;;;;;;5092531;28;20199;-76
2024/01/27 07:06:49;;;;;;;14.20;6.40;;;3.80;99.90;;;;;;5090839;28;20171;-75
2024/01/27 07:09:14;;;;;;;17.37;7.90;;;3.80;99.90;;;;;;5092961;28;20172;-76
2024/01/27 07:11:40;;;;;;;19.07;8.37;;;3.80;99.90;;;;;;5092141;28;20172;-76
2024/01/27 07:14:08;;;;;;;21.87;7.50;;;3.80;99.90;;;;;;5092467;28;20190;-76
2024/01/27 07:16:34;;;;;;;23.53;7.67;;;3.80;99.90;;;;;;5092527;28;20187;-75
2024/01/27 07:19:00;;;;;;;21.23;6.97;;;3.90;99.90;;;;;;5092458;28;20253;-76
2024/01/27 07:21:26;;;;;;;17.63;7.13;;;3.80;99.90;;;;;;5092208;28;20172;-76
2024/01/27 07:23:53;;;;;;;24.00;7.40;;;3.80;99.90;;;;;;5092750;28;20179;-76
2024/01/27 07:26:19;;;;;;;20.87;7.70;;;3.90;99.90;;;;;;5091143;28;20272;-76
2024/01/27 07:28:44;;;;;;;17.50;7.07;;;3.90;99.90;;;;;;5092594;28;20218;-76
2024/01/27 07:31:11;;;;;;;27.63;7.37;;;4.00;99.90;;;;;;5100963;28;20230;-76
2024/01/27 07:33:38;;;;;;;26.10;8.60;;;4.00;99.90;;;;;;5117090;27;20167;-76
2024/01/27 07:36:04;;;;;;;22.97;7.83;;;4.00;99.90;;;;;;5116020;28;20262;-76
2024/01/27 07:38:29;;;;;;;18.23;6.97;;;3.90;99.90;;;;;;5116801;28;20213;-76
2024/01/27 07:40:55;;;;;;;17.03;7.13;;;4.00;99.90;;;;;;5115076;28;20172;-76
2024/01/27 07:43:21;;;;;;;25.27;7.57;;;4.10;99.90;;;;;;5115834;28;20167;-76
2024/01/27 07:45:46;;;;;;;18.03;6.87;;;4.20;99.90;;;;;;5116473;28;20294;-75
2024/01/27 07:48:12;;;;;;;18.80;6.70;;;4.20;99.90;;;;;;5116061;28;20171;-75
2024/01/27 07:50:38;;;;;;;18.13;6.13;;;4.20;99.90;;;;;;5115751;28;20224;-76
2024/01/27 07:53:03;;;;;;;21.50;7.00;;;4.30;99.90;;;;;;5116256;28;20179;-76
2024/01/27 07:55:29;;;;;;;20.73;6.90;;;4.40;99.90;;;;;;5115580;28;20192;-76
2024/01/27 07:57:55;;;;;;;20.27;7.80;;;4.50;99.90;;;;;;5116186;28;20224;-75
2024/01/27 08:00:20;;;;;;;19.33;7.40;;;4.60;99.90;;;;;;5115915;28;20198;-75
2024/01/27 08:02:46;;;;;;;18.20;7.40;;;4.80;99.90;;;;;;5115884;28;20182;-74
2024/01/27 08:05:11;;;;;;;21.40;10.60;;;5.30;99.90;;;;;;5115381;27;20374;-74
2024/01/27 08:07:37;;;;;;;14.87;6.47;;;5.90;99.90;;;;;;5116066;28;20168;-74
2024/01/27 08:10:04;;;;;;;20.83;6.23;;;6.50;99.90;;;;;;5115518;28;20171;-74
2024/01/27 08:12:30;;;;;;;18.10;6.80;;;6.90;99.90;;;;;;5115924;28;20175;-74
2024/01/27 08:14:55;;;;;;;17.27;6.57;;;7.60;99.90;;;;;;5115704;28;20175;-73
2024/01/27 08:17:21;;;;;;;18.67;7.67;;;8.50;99.90;;;;;;5115670;28;20210;-73
2024/01/27 08:19:47;;;;;;;15.57;7.23;;;9.30;99.90;;;;;;5115318;28;20315;-73
2024/01/27 08:22:13;;;;;;;16.87;6.63;;;9.70;99.90;;;;;;5115204;28;20163;-72
2024/01/27 08:24:38;;;;;;;15.80;6.00;;;10.60;99.90;;;;;;5115490;28;20298;-74
2024/01/27 08:27:05;;;;;;;15.80;5.77;;;11.10;99.90;;;;;;5115802;28;20190;-75
2024/01/27 08:29:30;;;;;;;13.87;5.43;;;11.40;99.90;;;;;;5115367;28;20167;-74
2024/01/27 08:31:56;;;;;;;21.50;7.43;;;12.30;99.90;;;;;;5115018;28;20219;-75
2024/01/27 08:34:21;;;;;;;13.47;6.17;;;12.70;99.90;;;;;;5114768;28;20190;-75
2024/01/27 08:36:47;;;;;;;15.50;6.00;;;13.20;98.60;;;;;;5115137;28;20194;-74
2024/01/27 08:39:13;;;;;;;11.90;5.90;;;12.90;97.70;;;;;;5115348;28;20184;-74
2024/01/27 08:41:39;;;;;;;16.70;6.80;;;13.10;97.90;;;;;;5114809;28;20182;-74
2024/01/27 08:44:04;;;;;;;20.67;6.30;;;13.00;97.50;;;;;;5114800;28;20175;-74
2024/01/27 08:46:30;;;;;;;16.13;7.50;;;13.60;96.60;;;;;;5114791;28;20171;-75
2024/01/27 08:48:56;;;;;;;18.67;7.37;;;13.80;95.30;;;;;;5114857;28;20179;-74
2024/01/27 08:51:21;;;;;;;16.53;7.30;;;14.30;94.60;;;;;;5114735;28;20182;-74
2024/01/27 08:53:49;;;;;;;21.20;7.97;;;13.60;94.70;;;;;;5114936;28;20191;-75
2024/01/27 08:56:17;;;;;;;16.70;7.80;;;14.00;95.10;;;;;;5114441;28;20650;-76
2024/01/27 08:58:43;;;;;;;19.63;7.55;;;14.50;93.90;;;;;;5114818;28;20178;-75
2024/01/27 09:01:12;;;;;;;15.52;7.72;;;15.20;91.30;;;;;;5114616;28;20171;-76
2024/01/27 09:03:39;;;;;;;17.05;7.13;;;15.00;92.00;;;;;;5114727;28;20174;-75
2024/01/27 09:06:04;;;;;;;15.85;5.80;;;14.60;92.00;;;;;;5114326;28;20203;-73
2024/01/27 09:08:30;;;;;;;16.40;7.03;;;14.70;91.60;;;;;;5114670;28;20239;-74
2024/01/27 09:10:55;;;;;;;15.43;6.80;;;15.00;91.20;;;;;;5114718;28;20262;-75
2024/01/27 09:13:21;;;;;;;16.42;6.70;;;15.40;90.20;;;;;;5114684;28;20627;-75
2024/01/27 09:15:48;;;;;;;14.10;5.90;;;15.20;89.80;;;;;;5114346;28;20637;-74
2024/01/27 09:18:14;;;;;;;9.85;5.85;;;14.70;90.70;;;;;;5114022;28;20159;-75
2024/01/27 09:20:40;;;;;;;15.23;6.28;;;14.70;90.90;;;;;;5113710;28;20216;-75
2024/01/27 09:23:06;;;;;;;13.35;6.43;;;14.90;90.70;;;;;;5112758;28;20531;-75
2024/01/27 09:25:31;;;;;;;14.25;6.32;;;15.50;88.60;;;;;;5114254;28;20203;-75
2024/01/27 09:28:00;;;;;;;12.38;6.25;;;15.40;86.50;;;;;;5114060;28;20163;-75
2024/01/27 09:30:26;;;;;;;17.40;7.05;;;15.80;86.00;;;;;;5113834;28;20207;-75
2024/01/27 09:32:51;;;;;;;13.18;7.18;;;15.80;84.30;;;;;;5113716;28;20615;-75
2024/01/27 09:35:17;;;;;;;11.27;6.63;;;15.90;83.50;;;;;;5114096;28;20171;-75
2024/01/27 09:37:44;;;;;;;15.77;6.90;;;16.00;82.80;;;;;;5113985;28;20163;-77
2024/01/27 09:40:10;;;;;;;12.63;6.65;;;16.10;81.60;;;;;;5114127;27;20164;-75
2024/01/27 09:42:39;;;;;;;19.13;7.15;;;16.00;82.20;;;;;;5113509;28;20700;-74
2024/01/27 09:45:05;;;;;;;14.88;7.10;;;15.10;83.10;;;;;;5113210;28;20215;-75
2024/01/27 09:47:31;;;;;;;16.27;6.95;;;15.50;85.80;;;;;;5112265;28;20228;-75
2024/01/27 09:49:57;;;;;;;13.10;6.78;;;15.30;84.70;;;;;;5113810;28;20199;-75
2024/01/27 09:52:24;;;;;;;17.40;6.72;;;15.90;82.70;;;;;;5112838;28;20529;-75
2024/01/27 09:54:49;;;;;;;14.30;7.80;;;16.00;80.70;;;;;;5112517;28;20163;-74
2024/01/27 09:57:15;;;;;;;48.13;34.78;;;15.40;82.20;;;;;;5113476;28;20177;-75
2024/01/27 09:59:44;;;;;;;19.63;9.07;;;15.20;82.20;;;;;;5111493;28;20183;-75
2024/01/27 10:02:11;;;;;;;16.27;7.50;;;15.80;82.60;;;;;;5113874;28;20159;-75
2024/01/27 10:04:38;;;;;;;15.73;8.25;;;16.40;78.60;;;;;;5113552;28;20195;-75
2024/01/27 10:07:04;;;;;;;15.00;7.97;;;16.40;77.70;;;;;;5113555;28;20213;-75
2024/01/27 10:09:29;;;;;;;19.38;8.35;;;15.80;77.70;;;;;;5113393;28;20171;-75
2024/01/27 10:11:56;;;;;;;18.55;8.02;;;15.20;79.90;;;;;;5113613;28;20181;-75
2024/01/27 10:14:22;;;;;;;15.55;7.90;;;15.40;80.40;;;;;;5111865;28;20194;-75
2024/01/27 10:16:48;;;;;;;18.20;8.85;;;15.20;83.20;;;;;;5113545;28;20579;-75
2024/01/27 10:19:19;;;;;;;19.85;8.63;;;15.70;81.80;;;;;;5112881;28;20171;-75
2024/01/27 10:21:45;;;;;;;14.98;7.72;;;16.20;78.40;;;;;;5113527;28;20622;-75
2024/01/27 10:24:12;;;;;;;18.48;9.93;;;16.10;78.40;;;;;;5113102;28;20579;-76
2024/01/27 10:26:37;;;;;;;18.15;9.23;;;16.30;77.60;;;;;;5113055;28;20167;-75
2024/01/27 10:29:03;;;;;;;17.65;8.43;;;15.90;77.90;;;;;;5112806;28;20174;-76
2024/01/27 10:31:31;;;;;;;22.08;9.75;;;15.60;80.80;;;;;;5112673;28;20264;-75
2024/01/27 10:33:57;;;;;;;15.82;7.78;;;15.20;82.80;;;;;;5113329;28;20164;-74
2024/01/27 10:36:24;;;;;;;17.00;7.25;;;14.20;86.60;;;;;;5113369;28;20209;-75
2024/01/27 10:38:49;;;;;;;17.55;8.27;;;13.30;91.20;;;;;;5113386;28;20175;-74
2024/01/27 10:41:23;;;;;;;16.17;7.80;;;12.90;93.10;;;;;;5113070;28;20182;-75
2024/01/27 10:43:51;;;;;;;14.60;7.53;;;13.10;93.50;;;;;;5112192;28;20200;-74
2024/01/27 10:46:22;;;;;;;17.20;8.27;;;12.40;95.50;;;;;;5112525;28;20666;-74
2024/01/27 10:48:54;;;;;;;17.60;6.80;;;11.80;97.00;;;;;;5112722;28;20167;-74
2024/01/27 10:51:30;;;;;;;17.07;7.60;;;11.40;98.40;;;;;;5112945;28;20187;-76
2024/01/27 10:54:03;;;;;;;12.03;5.60;;;11.50;99.30;;;;;;5112623;28;20183;-75
2024/01/27 10:56:35;;;;;;;14.60;6.23;;;11.90;97.90;;;;;;5113450;28;20249;-75
2024/01/27 10:59:04;;;;;;;13.03;6.27;;;12.30;96.50;;;;;;5112503;28;20546;-75
2024/01/27 11:01:31;;;;;;;15.63;7.17;;;13.00;96.20;;;;;;5112649;28;20254;-76
2024/01/27 11:03:58;;;;;;;11.40;5.60;;;13.40;93.80;;;;;;5113147;28;20198;-75
2024/01/27 11:06:26;;;;;;;16.03;7.13;;;13.60;93.10;;;;;;5115012;28;20215;-75
2024/01/27 11:08:54;;;;;;;9.83;5.20;;;14.30;92.30;;;;;;5117070;28;20175;-75
2024/01/27 11:11:20;;;;;;;17.48;9.32;;;14.10;91.10;;;;;;5116285;28;20564;-75
2024/01/27 11:13:48;;;;;;;9.48;5.00;;;14.00;91.80;;;;;;5116547;28;20178;-75
2024/01/27 11:16:18;;;;;;;12.90;5.57;;;13.90;91.00;;;;;;5116824;28;20174;-75
2024/01/27 11:18:45;;;;;;;13.82;6.75;;;14.20;91.30;;;;;;5116907;28;20167;-75
2024/01/27 11:21:17;;;;;;;13.85;5.97;;;14.10;90.80;;;;;;5115405;28;20203;-76
2024/01/27 11:23:44;;;;;;;10.57;5.10;;;14.60;90.10;;;;;;5116528;28;20194;-75
2024/01/27 11:26:14;;;;;;;8.98;5.43;;;15.10;87.50;;;;;;5115060;28;20729;-75
2024/01/27 11:28:40;;;;;;;13.05;6.45;;;15.20;86.80;;;;;;5116314;28;20220;-74
2024/01/27 11:31:07;;;;;;;16.52;6.03;;;14.70;87.50;;;;;;5116299;28;20246;-75
2024/01/27 11:33:33;;;;;;;12.32;5.70;;;15.20;86.50;;;;;;5116707;28;20189;-74
2024/01/27 11:36:02;;;;;;;15.25;5.93;;;15.10;86.00;;;;;;5114783;28;20705;-74
2024/01/27 11:38:28;;;;;;;10.93;5.82;;;14.80;85.40;;;;;;5114924;28;20175;-74
2024/01/27 11:40:54;;;;;;;14.68;5.90;;;14.00;89.80;;;;;;5115803;28;20223;-75
2024/01/27 11:43:19;;;;;;;14.10;5.55;;;13.90;89.70;;;;;;5116023;28;20221;-74
2024/01/27 11:45:58;;;;;;;13.93;5.55;;;13.60;90.00;;;;;;5116530;28;20264;-74
2024/01/27 11:48:24;;;;;;;11.43;5.40;;;13.40;91.10;;;;;;5116199;28;20160;-74
2024/01/27 11:51:01;;;;;;;13.03;5.57;;;13.00;91.50;;;;;;5115885;28;20174;-75
2024/01/27 11:53:27;;;;;;;9.80;5.03;;;12.80;92.40;;;;;;5116052;28;20714;-75
2024/01/27 11:55:59;;;;;;;15.57;6.87;;;12.80;92.80;;;;;;5114112;28;20171;-74
2024/01/27 11:58:24;;;;;;;10.10;5.10;;;12.90;92.50;;;;;;5116303;28;20163;-73
2024/01/27 12:00:50;;;;;;;10.13;4.70;;;12.70;92.30;;;;;;5115858;28;20178;-73
2024/01/27 12:03:16;;;;;;;13.20;6.20;;;12.30;93.60;;;;;;5115620;28;20665;-74
2024/01/27 12:05:41;;;;;;;12.33;7.20;;;11.70;95.30;;;;;;5115522;28;20199;-73
2024/01/27 12:08:08;;;;;;;13.07;5.80;;;11.80;95.50;;;;;;5115882;28;20186;-74
2024/01/27 12:10:34;;;;;;;12.17;5.37;;;12.00;95.20;;;;;;5115395;28;20171;-74
2024/01/27 12:13:00;;;;;;;12.60;5.57;;;11.90;95.10;;;;;;5115048;28;20752;-74
2024/01/27 12:15:26;;;;;;;10.57;4.80;;;12.40;95.30;;;;;;5115397;28;20187;-74
2024/01/27 12:17:52;;;;;;;9.73;5.20;;;12.80;93.70;;;;;;5115041;28;20244;-74
2024/01/27 12:20:18;;;;;;;14.83;6.60;;;13.10;92.30;;;;;;5114763;28;20658;-74
2024/01/27 12:22:44;;;;;;;15.03;5.00;;;13.20;91.70;;;;;;5115073;28;20262;-74
2024/01/27 12:25:13;;;;;;;12.43;5.50;;;12.90;92.20;;;;;;5114957;28;20529;-73
2024/01/27 12:27:39;;;;;;;12.47;5.80;;;12.90;92.00;;;;;;5115210;28;20184;-74
2024/01/27 12:30:06;;;;;;;10.40;5.37;;;13.20;92.60;;;;;;5115625;28;20250;-74
2024/01/27 12:32:31;;;;;;;11.20;5.37;;;12.90;91.40;;;;;;5114775;28;20298;-74
2024/01/27 12:35:00;;;;;;;11.37;5.20;;;13.10;91.70;;;;;;5113438;28;20699;-74
2024/01/27 12:37:26;;;;;;;12.90;4.80;;;13.10;91.20;;;;;;5115625;27;20236;-74